Valiant — NA35 — position and weather

sailwx.info

Track history (hours):
 
Tides and Currents Weather Stations Pressure Air Temp Water Temp Dewpoint Dewpoint Depression Visibility Wind Speed Wind Dir Waves Ship Positions

Valiant

Last reported at 2015-Aug-13 04:26 UTC. Time now 2015-Aug-30 03:42 UTC.
Position N 39°28' W 075°59'.
Warning: this ship's position is 16 days out of date.

Length 14 m.

Type: Sailing vessel. MMSI: 369970076.

Date/timePositionNaut miles runAvg speedWind from/ knotsBaromVisibWave heightAir tempDewpointWater temp
2015-Aug-13 04:26N 39°28' W 075°59'7 7.7
2015-Aug-13 03:33N 39°32' W 075°52'8 8.1
2015-Aug-13 02:33N 39°33' W 075°41'7 6.7
2015-Aug-13 01:33N 39°34' W 075°33'7 7.0
2015-Aug-13 00:33N 39°27' W 075°33'7 6.7
2015-Aug-12 23:33N 39°22' W 075°27'7 7.4
2015-Aug-12 22:33N 39°16' W 075°20'26 6.3
2015-Aug-12 18:28N 38°54' W 075°05'4 4.7
2015-Aug-12 17:33N 38°50' W 075°02'5 4.8
2015-Aug-12 16:33N 38°48' W 074°56'62 6.2
2015-Aug-12 06:29N 39°35' W 074°03'7 6.6
2015-Aug-12 05:23N 39°41' W 073°58'56 4.7
2015-Aug-11 17:33N 40°36' W 074°03'6 4.8
2015-Aug-11 16:14N 40°43' W 074°02'0 0.3
2015-Aug-11 15:32N 40°43' W 074°02'33 4.1
2015-Aug-11 07:31N 40°59' W 073°24'43 6.0
2015-Aug-11 00:18N 41°08' W 072°28'6 7.5
2015-Aug-10 23:34N 41°11' W 072°22'8 8.5
2015-Aug-10 22:34N 41°13' W 072°11'8 7.7
2015-Aug-10 21:33N 41°12' W 072°01'8 7.9
2015-Aug-10 20:34N 41°15' W 071°51'7 7.4
2015-Aug-10 19:34N 41°15' W 071°41'5 4.7
2015-Aug-10 18:33N 41°17' W 071°35'5 5.3
2015-Aug-10 17:34N 41°21' W 071°30'6 6.4
2015-Aug-10 16:34N 41°25' W 071°24'  
2015-Aug-07 11:34N 41°23' W 071°25'6 5.7
2015-Aug-07 10:33N 41°17' W 071°28'5 5.5
2015-Aug-07 09:34N 41°12' W 071°29'5 5.5
2015-Aug-07 08:34N 41°07' W 071°32'6 6.1
2015-Aug-07 07:34N 41°03' W 071°38'6 6.0
2015-Aug-07 06:33N 40°58' W 071°43'6 5.7
2015-Aug-07 05:33N 40°53' W 071°48'6 6.4
2015-Aug-07 04:33N 40°48' W 071°53'7 6.8
2015-Aug-07 03:34N 40°43' W 071°58'7 6.7
2015-Aug-07 02:33N 40°37' W 072°03'6 6.3
2015-Aug-07 01:33N 40°32' W 072°08'6 5.8
2015-Aug-07 00:33N 40°27' W 072°12'  
Track history (hours):
 
Tides and Currents Weather Stations Pressure Air Temp Water Temp Dewpoint Dewpoint Depression Visibility Wind Speed Wind Dir Waves Ship Positions

Valiant

Last reported at 2015-Aug-13 04:26 UTC. Time now 2015-Aug-30 03:42 UTC.
Position N 39°28' W 075°59'.
Warning: this ship's position is 16 days out of date.

Length 14 m.

Type: Sailing vessel. MMSI: 369970076.

Date/timePositionNaut miles runAvg speedWind from/ knotsBaromVisibWave heightAir tempDewpointWater temp
2015-Aug-13 04:26N 39°28' W 075°59'7 7.7
2015-Aug-13 03:33N 39°32' W 075°52'8 8.1
2015-Aug-13 02:33N 39°33' W 075°41'7 6.7
2015-Aug-13 01:33N 39°34' W 075°33'7 7.0
2015-Aug-13 00:33N 39°27' W 075°33'7 6.7
2015-Aug-12 23:33N 39°22' W 075°27'7 7.4
2015-Aug-12 22:33N 39°16' W 075°20'26 6.3
2015-Aug-12 18:28N 38°54' W 075°05'4 4.7
2015-Aug-12 17:33N 38°50' W 075°02'5 4.8
2015-Aug-12 16:33N 38°48' W 074°56'62 6.2
2015-Aug-12 06:29N 39°35' W 074°03'7 6.6
2015-Aug-12 05:23N 39°41' W 073°58'56 4.7
2015-Aug-11 17:33N 40°36' W 074°03'6 4.8
2015-Aug-11 16:14N 40°43' W 074°02'0 0.3
2015-Aug-11 15:32N 40°43' W 074°02'33 4.1
2015-Aug-11 07:31N 40°59' W 073°24'43 6.0
2015-Aug-11 00:18N 41°08' W 072°28'6 7.5
2015-Aug-10 23:34N 41°11' W 072°22'8 8.5
2015-Aug-10 22:34N 41°13' W 072°11'8 7.7
2015-Aug-10 21:33N 41°12' W 072°01'8 7.9
2015-Aug-10 20:34N 41°15' W 071°51'7 7.4
2015-Aug-10 19:34N 41°15' W 071°41'5 4.7
2015-Aug-10 18:33N 41°17' W 071°35'5 5.3
2015-Aug-10 17:34N 41°21' W 071°30'6 6.4
2015-Aug-10 16:34N 41°25' W 071°24'  
2015-Aug-07 11:34N 41°23' W 071°25'6 5.7
2015-Aug-07 10:33N 41°17' W 071°28'5 5.5
2015-Aug-07 09:34N 41°12' W 071°29'5 5.5
2015-Aug-07 08:34N 41°07' W 071°32'6 6.1
2015-Aug-07 07:34N 41°03' W 071°38'6 6.0
2015-Aug-07 06:33N 40°58' W 071°43'6 5.7
2015-Aug-07 05:33N 40°53' W 071°48'6 6.4
2015-Aug-07 04:33N 40°48' W 071°53'7 6.8
2015-Aug-07 03:34N 40°43' W 071°58'7 6.7
2015-Aug-07 02:33N 40°37' W 072°03'6 6.3
2015-Aug-07 01:33N 40°32' W 072°08'6 5.8
2015-Aug-07 00:33N 40°27' W 072°12'  

Dump ship's entire track history